Time;durP1;ratioP1;P1;durP2;ratioP2;P2;SDS_P1;SDS_P2;PMS_P1;PMS_P2;Temp;Humidity;BMP_temperature;BMP_pressure;BME280_temperature;BME280_humidity;BME280_pressure;Samples;Min_cycle;Max_cycle;Signal;HPM_P1;HPM_P2
2022/04/20 00:00:30;;;;;;;8.27;7.57;;;;;;;3.89;63.19;94593.91;4977741;28;20289;-67
2022/04/20 00:02:56;;;;;;;8.77;7.97;;;;;;;3.77;63.36;94597.50;4965584;28;20247;-68
2022/04/20 00:05:21;;;;;;;8.90;8.03;;;;;;;3.74;63.65;94592.53;4982045;28;20231;-67
2022/04/20 00:07:47;;;;;;;10.07;7.97;;;;;;;3.58;64.30;94586.88;4968782;28;20243;-67
2022/04/20 00:10:12;;;;;;;7.73;7.03;;;;;;;3.56;64.28;94583.59;4973461;28;20228;-67
2022/04/20 00:12:38;;;;;;;9.43;8.00;;;;;;;3.62;64.15;94588.31;4966889;28;20231;-68
2022/04/20 00:15:04;;;;;;;9.17;8.17;;;;;;;3.60;64.07;94590.19;4966016;28;20207;-67
2022/04/20 00:17:29;;;;;;;9.27;8.37;;;;;;;3.56;64.03;94589.59;4967381;28;20268;-68
2022/04/20 00:19:55;;;;;;;9.33;8.23;;;;;;;3.54;64.24;94581.91;4961569;28;20227;-68
2022/04/20 00:22:20;;;;;;;9.20;8.30;;;;;;;3.41;64.53;94596.81;4970346;28;20291;-67
2022/04/20 00:24:45;;;;;;;9.77;8.40;;;;;;;3.49;64.27;94594.44;4957467;28;20216;-68
2022/04/20 00:27:11;;;;;;;12.17;9.13;;;;;;;3.48;64.28;94592.81;4950008;28;20201;-67
2022/04/20 00:29:36;;;;;;;9.70;8.70;;;;;;;3.57;64.28;94590.44;4949559;28;20240;-66
2022/04/20 00:32:02;;;;;;;9.40;8.50;;;;;;;3.63;64.24;94592.53;4955402;28;20259;-67
2022/04/20 00:34:27;;;;;;;12.13;9.30;;;;;;;3.44;64.59;94586.16;4948287;28;20262;-68
2022/04/20 00:36:53;;;;;;;11.43;9.90;;;;;;;3.52;64.27;94578.59;4964528;28;20236;-68
2022/04/20 00:39:20;;;;;;;10.17;9.17;;;;;;;3.40;64.50;94582.19;4968016;28;20251;-68
2022/04/20 00:41:46;;;;;;;10.40;9.30;;;;;;;3.29;65.29;94583.00;4956675;28;20204;-67
2022/04/20 00:44:11;;;;;;;10.60;9.50;;;;;;;3.35;65.20;94588.69;4956319;28;20254;-67
2022/04/20 00:46:38;;;;;;;11.13;9.87;;;;;;;3.28;65.09;94581.34;4967396;28;20271;-68
2022/04/20 00:49:05;;;;;;;12.63;9.47;;;;;;;3.28;64.98;94581.34;4961625;28;20245;-68
2022/04/20 00:51:31;;;;;;;10.27;9.37;;;;;;;3.31;64.97;94585.47;4967709;28;20283;-68
2022/04/20 00:54:01;;;;;;;10.23;8.73;;;;;;;3.27;65.11;94584.06;4973291;28;20212;-68
2022/04/20 00:56:28;;;;;;;11.50;9.93;;;;;;;3.39;64.85;94577.91;4969360;28;20230;-68
2022/04/20 00:58:57;;;;;;;11.17;9.00;;;;;;;3.35;65.21;94573.91;4969492;28;20240;-68
2022/04/20 01:01:23;;;;;;;10.43;9.33;;;;;;;3.29;65.12;94569.19;4988636;28;20267;-67
2022/04/20 01:03:49;;;;;;;10.70;9.10;;;;;;;3.33;65.15;94577.56;4979508;28;20228;-67
2022/04/20 01:06:15;;;;;;;10.17;9.23;;;;;;;3.28;65.02;94576.13;4955277;28;20299;-67
2022/04/20 01:08:40;;;;;;;12.60;9.67;;;;;;;3.30;65.41;94576.03;4967903;28;20227;-67
2022/04/20 01:11:06;;;;;;;13.07;11.23;;;;;;;3.25;64.91;94580.75;4965229;28;20239;-67
2022/04/20 01:13:31;;;;;;;12.50;11.17;;;;;;;3.08;65.24;94569.06;4955945;28;20234;-67
2022/04/20 01:15:57;;;;;;;12.57;11.37;;;;;;;3.07;64.89;94575.19;4944178;28;20232;-67
2022/04/20 01:18:22;;;;;;;11.47;10.27;;;;;;;2.87;66.14;94580.13;4964890;28;20205;-67
2022/04/20 01:20:48;;;;;;;11.30;10.27;;;;;;;2.86;67.15;94572.44;4966725;28;20274;-68
2022/04/20 01:23:13;;;;;;;11.73;10.73;;;;;;;3.00;66.79;94576.63;4961271;28;20263;-68
2022/04/20 01:25:39;;;;;;;12.13;10.87;;;;;;;3.05;66.47;94574.50;4940257;28;20225;-65
2022/04/20 01:28:05;;;;;;;11.13;10.03;;;;;;;2.92;66.72;94574.59;4959366;28;20232;-69
2022/04/20 01:30:31;;;;;;;12.90;10.93;;;;;;;3.01;66.64;94589.47;4951291;28;20259;-68
2022/04/20 01:32:57;;;;;;;12.27;10.93;;;;;;;3.18;66.42;94588.22;4969105;28;20211;-67
2022/04/20 01:35:24;;;;;;;11.53;10.43;;;;;;;3.11;66.03;94588.78;4974621;28;20220;-68
2022/04/20 01:37:52;;;;;;;10.80;9.80;;;;;;;2.89;66.75;94590.41;4960666;28;20234;-67
2022/04/20 01:40:18;;;;;;;11.50;10.40;;;;;;;3.01;66.99;94586.88;4947051;28;20221;-67
2022/04/20 01:42:44;;;;;;;11.00;10.00;;;;;;;3.02;66.39;94575.56;4946282;28;20272;-68
2022/04/20 01:45:10;;;;;;;11.23;10.13;;;;;;;3.16;65.85;94581.47;4946210;28;20204;-68
2022/04/20 01:47:35;;;;;;;11.50;10.30;;;;;;;2.86;66.77;94588.88;4942861;28;20221;-66
2022/04/20 01:50:01;;;;;;;11.47;10.37;;;;;;;2.80;67.25;94581.53;4941685;28;20225;-68
2022/04/20 01:52:26;;;;;;;12.00;10.90;;;;;;;2.84;67.36;94592.53;4946805;28;20233;-67
2022/04/20 01:54:52;;;;;;;12.33;11.13;;;;;;;2.86;67.37;94585.44;4948520;28;20232;-67
2022/04/20 01:57:17;;;;;;;11.33;10.23;;;;;;;2.84;67.53;94587.34;4947831;28;20283;-67
2022/04/20 01:59:43;;;;;;;11.50;10.40;;;;;;;2.88;67.32;94594.75;4957474;28;20213;-67
2022/04/20 02:04:52;;;;;;;10.97;9.97;;;;;;;2.91;67.11;94592.88;4934413;28;20239;-68
2022/04/20 02:07:18;;;;;;;12.33;11.13;;;;;;;2.84;67.52;94605.50;4947843;28;20228;-68
2022/04/20 02:09:43;;;;;;;10.50;9.50;;;;;;;2.90;67.35;94580.84;4961203;28;20280;-68
2022/04/20 02:12:09;;;;;;;12.20;11.10;;;;;;;2.89;67.23;94608.59;4960386;28;20221;-67
2022/04/20 02:14:34;;;;;;;12.07;10.97;;;;;;;2.84;67.55;94595.94;4976684;28;20233;-67
2022/04/20 02:17:01;;;;;;;12.43;11.17;;;;;;;2.79;67.84;94594.66;4965042;28;20228;-68
2022/04/20 02:19:26;;;;;;;11.93;10.83;;;;;;;2.78;68.02;94593.81;4969702;28;20249;-67
2022/04/20 02:21:52;;;;;;;12.93;11.00;;;;;;;2.64;68.52;94589.63;4966270;28;20232;-68
2022/04/20 02:24:17;;;;;;;12.77;11.57;;;;;;;2.65;68.86;94587.88;4968160;28;20218;-68
2022/04/20 02:26:43;;;;;;;11.77;10.57;;;;;;;2.70;68.82;94587.53;4966668;28;20218;-67
2022/04/20 02:29:08;;;;;;;12.33;11.13;;;;;;;2.70;68.42;94584.94;4969459;28;20232;-67
2022/04/20 02:31:34;;;;;;;12.70;11.43;;;;;;;2.75;68.04;94575.84;4972120;28;20260;-66
2022/04/20 02:33:59;;;;;;;12.90;11.70;;;;;;;2.74;68.31;94581.19;4980992;28;20262;-68
2022/04/20 02:36:25;;;;;;;12.17;11.07;;;;;;;2.68;68.47;94573.84;4968448;28;20228;-68
2022/04/20 02:38:51;;;;;;;13.17;11.90;;;;;;;2.71;68.33;94577.03;4974242;28;20236;-68
2022/04/20 02:41:17;;;;;;;11.63;10.50;;;;;;;2.72;68.24;94583.88;4956448;28;20320;-68
2022/04/20 02:43:42;;;;;;;12.87;11.53;;;;;;;2.61;68.60;94569.09;4969239;28;20304;-69
2022/04/20 02:46:08;;;;;;;12.63;11.43;;;;;;;2.70;68.67;94574.53;4955392;28;20241;-68
2022/04/20 02:48:35;;;;;;;12.30;11.20;;;;;;;2.65;68.19;94572.31;4948379;28;20236;-68
2022/04/20 02:51:00;;;;;;;11.43;10.33;;;;;;;2.64;68.21;94571.47;4965318;28;20223;-68
2022/04/20 02:53:25;;;;;;;13.73;12.33;;;;;;;2.65;68.24;94582.69;4966773;28;20225;-67
2022/04/20 02:55:51;;;;;;;12.20;11.00;;;;;;;2.61;68.39;94570.88;4955298;28;20292;-67
2022/04/20 02:58:16;;;;;;;13.03;11.87;;;;;;;2.82;67.73;94584.84;4948058;28;20243;-67
2022/04/20 03:00:43;;;;;;;12.60;11.40;;;;;;;2.67;67.82;94582.56;4965100;28;20225;-68
2022/04/20 03:03:09;;;;;;;12.93;11.73;;;;;;;2.53;68.05;94584.41;4964622;28;20196;-67
2022/04/20 03:05:34;;;;;;;13.73;12.40;;;;;;;2.65;68.56;94599.09;4950442;28;20227;-65
2022/04/20 03:08:00;;;;;;;13.37;12.07;;;;;;;2.63;68.08;94590.59;4946234;28;20256;-67
2022/04/20 03:10:26;;;;;;;13.20;11.90;;;;;;;2.78;66.96;94592.97;4949994;28;20226;-67
2022/04/20 03:12:52;;;;;;;13.37;12.17;;;;;;;2.59;67.75;94594.38;4953917;28;20232;-67
2022/04/20 03:15:17;;;;;;;13.73;12.40;;;;;;;2.58;67.97;94592.69;4948210;28;20264;-66
2022/04/20 03:17:43;;;;;;;14.60;13.30;;;;;;;2.63;67.38;94589.75;4961980;28;20312;-67
2022/04/20 03:20:10;;;;;;;13.13;11.73;;;;;;;2.52;68.05;94582.78;4967065;28;20220;-67
2022/04/20 03:22:35;;;;;;;16.20;13.03;;;;;;;2.47;68.25;94595.25;4954229;28;20220;-67
2022/04/20 03:25:01;;;;;;;15.03;13.43;;;;;;;2.72;67.54;94603.81;4948778;28;20291;-67
2022/04/20 03:27:26;;;;;;;14.47;13.07;;;;;;;2.67;67.60;94604.16;4956652;28;20243;-67
2022/04/20 03:29:52;;;;;;;14.77;13.30;;;;;;;2.55;67.43;94595.53;4945790;28;20207;-67
2022/04/20 03:32:17;;;;;;;14.60;13.10;;;;;;;2.47;68.37;94590.06;4948494;28;20353;-67
2022/04/20 03:34:43;;;;;;;14.13;12.67;;;;;;;2.57;67.84;94578.06;4957735;28;20229;-67
2022/04/20 03:37:12;;;;;;;13.90;12.60;;;;;;;2.53;67.98;94576.63;4946981;28;20249;-68
2022/04/20 03:39:38;;;;;;;15.33;13.70;;;;;;;2.81;67.24;94578.00;4942659;28;20248;-68
2022/04/20 03:42:04;;;;;;;15.87;13.93;;;;;;;2.74;67.90;94575.97;4946721;28;20197;-68
2022/04/20 03:44:31;;;;;;;14.57;13.07;;;;;;;2.77;67.47;94576.56;4960512;28;20229;-68
2022/04/20 03:46:57;;;;;;;15.10;13.60;;;;;;;2.70;67.77;94570.22;4962909;28;20235;-69
2022/04/20 03:49:22;;;;;;;15.40;13.90;;;;;;;2.80;67.66;94571.16;4954600;28;20220;-69
2022/04/20 03:51:47;;;;;;;14.27;12.77;;;;;;;2.73;67.33;94571.75;4956759;28;20263;-67
2022/04/20 03:54:14;;;;;;;15.23;13.73;;;;;;;2.71;67.85;94574.44;4968050;28;20200;-67
2022/04/20 03:59:23;;;;;;;14.37;12.87;;;;;;;2.78;67.61;94578.25;4963610;28;20232;-67
2022/04/20 04:01:50;;;;;;;15.00;13.40;;;;;;;2.82;67.17;94581.44;4974844;28;20223;-66
2022/04/20 04:04:15;;;;;;;15.70;14.10;;;;;;;2.85;67.37;94581.19;4958861;28;20227;-66
2022/04/20 04:06:41;;;;;;;16.07;14.47;;;;;;;2.76;67.68;94582.72;4937040;28;20237;-67
2022/04/20 04:09:07;;;;;;;14.47;13.00;;;;;;;2.76;67.97;94579.28;4947395;28;20216;-67
2022/04/20 04:11:53;;;;;;;15.20;13.80;;;;;;;2.81;67.79;94569.41;4978773;28;20229;-67
2022/04/20 04:14:18;;;;;;;14.83;12.60;;;;;;;2.83;67.28;94565.75;4929149;29;20348;-67
2022/04/20 04:16:44;;;;;;;14.23;12.87;;;;;;;3.02;66.79;94564.31;4915196;29;20297;-67
2022/04/20 04:19:11;;;;;;;14.70;13.17;;;;;;;3.13;66.74;94558.31;4933514;29;20229;-67
2022/04/20 04:21:38;;;;;;;18.73;14.63;;;;;;;3.17;66.35;94567.53;4928000;29;20339;-68
2022/04/20 04:24:08;;;;;;;15.40;13.80;;;;;;;3.15;66.03;94559.03;4908611;29;20264;-66
2022/04/20 04:26:34;;;;;;;16.17;14.47;;;;;;;3.13;66.09;94553.09;4922347;29;20299;-66
2022/04/20 04:29:00;;;;;;;19.93;14.37;;;;;;;3.03;66.63;94555.59;4913967;29;20233;-66
2022/04/20 04:31:26;;;;;;;15.20;13.70;;;;;;;3.17;66.36;94546.75;4928351;29;20240;-66
2022/04/20 04:33:51;;;;;;;15.20;13.67;;;;;;;3.20;65.85;94544.72;4914581;29;20237;-66
2022/04/20 04:36:17;;;;;;;14.83;13.23;;;;;;;3.21;66.01;94550.78;4910713;29;20205;-65
2022/04/20 04:38:43;;;;;;;14.63;13.13;;;;;;;3.22;66.09;94550.63;4912414;29;20209;-66
2022/04/20 04:41:09;;;;;;;15.63;14.03;;;;;;;3.33;65.78;94541.19;4909543;29;20320;-66
2022/04/20 04:43:34;;;;;;;15.53;13.93;;;;;;;3.31;65.54;94538.69;4908732;29;20633;-67
2022/04/20 04:48:48;;;;;;;19.20;14.07;;;;;;;3.48;65.07;94566.81;4929307;29;20293;-68
2022/04/20 04:51:14;;;;;;;14.53;13.13;;;;;;;3.45;65.40;94556.66;4948052;28;20220;-67
2022/04/20 04:53:40;;;;;;;15.60;13.77;;;;;;;3.40;65.38;94563.97;4965552;28;20204;-67
2022/04/20 04:56:06;;;;;;;16.27;14.10;;;;;;;3.37;66.03;94565.97;4969351;28;20219;-68
2022/04/20 04:58:31;;;;;;;14.57;13.07;;;;;;;3.43;65.71;94571.53;4958771;28;20276;-68
2022/04/20 05:00:58;;;;;;;16.97;14.53;;;;;;;3.53;65.33;94569.88;4960111;28;20263;-68
2022/04/20 05:03:24;;;;;;;16.67;15.07;;;;;;;3.46;65.22;94568.69;4947702;28;20213;-68
2022/04/20 05:05:50;;;;;;;16.50;14.73;;;;;;;3.65;65.02;94570.69;4946444;28;20216;-68
2022/04/20 05:08:16;;;;;;;16.47;14.90;;;;;;;3.63;64.60;94579.53;4961192;28;20233;-67
2022/04/20 05:10:41;;;;;;;18.20;14.30;;;;;;;3.52;65.27;94570.81;4943889;28;20233;-68
2022/04/20 05:13:07;;;;;;;17.77;15.27;;;;;;;3.60;65.24;94572.81;4958170;28;20304;-66
2022/04/20 05:15:33;;;;;;;17.27;15.57;;;;;;;3.70;65.19;94581.53;4956955;28;20225;-68
2022/04/20 05:17:59;;;;;;;18.13;15.60;;;;;;;3.67;65.02;94578.38;4945182;28;20206;-70
2022/04/20 05:20:25;;;;;;;18.10;16.27;;;;;;;3.67;65.16;94580.97;4961455;28;20231;-69
2022/04/20 05:22:50;;;;;;;17.27;15.47;;;;;;;3.67;65.74;94586.16;4953349;28;20228;-69
2022/04/20 05:25:16;;;;;;;17.80;15.90;;;;;;;3.82;65.13;94597.94;4960326;28;20269;-69
2022/04/20 05:27:42;;;;;;;17.40;15.53;;;;;;;3.76;65.35;94607.06;4946079;28;20236;-69
2022/04/20 05:30:11;;;;;;;18.33;16.43;;;;;;;3.82;64.95;94604.94;4945675;28;20248;-68
2022/04/20 05:32:36;;;;;;;16.30;14.43;;;;;;;3.77;65.28;94600.09;4944931;28;20236;-67
2022/04/20 05:35:03;;;;;;;19.63;15.47;;;;;;;3.73;65.31;94598.69;4950467;28;20224;-68
2022/04/20 05:42:57;;;;;;;20.10;15.50;;;;;;;3.88;64.84;94599.25;4947889;28;20241;-71
2022/04/20 05:45:23;;;;;;;17.93;14.80;;;;;;;3.84;65.05;94593.44;4944971;28;20213;-70
2022/04/20 05:47:49;;;;;;;18.07;15.77;;;;;;;3.82;65.29;94592.75;4946323;28;20268;-69
2022/04/20 05:50:15;;;;;;;16.40;14.67;;;;;;;3.92;65.03;94593.66;4959218;28;20232;-69
2022/04/20 05:52:40;;;;;;;15.87;14.17;;;;;;;4.01;64.80;94596.47;4957132;28;20318;-71
2022/04/20 05:55:06;;;;;;;19.23;14.17;;;;;;;4.12;64.56;94617.28;4967353;28;20224;-64
2022/04/20 05:57:33;;;;;;;17.83;14.80;;;;;;;4.10;64.77;94621.78;4952769;28;20206;-70
2022/04/20 05:59:59;;;;;;;15.57;13.97;;;;;;;4.02;65.01;94621.56;4972663;28;20208;-73
2022/04/20 06:02:24;;;;;;;19.47;15.37;;;;;;;4.06;64.94;94621.19;4957612;28;20246;-71
2022/04/20 06:04:50;;;;;;;18.60;14.50;;;;;;;4.08;64.40;94628.88;4941629;28;20268;-70
2022/04/20 06:07:15;;;;;;;17.13;14.73;;;;;;;4.08;64.70;94621.06;4945093;28;20252;-69
2022/04/20 06:09:41;;;;;;;16.03;14.40;;;;;;;4.10;64.53;94621.78;4948870;28;20240;-70
2022/04/20 06:12:07;;;;;;;16.50;14.80;;;;;;;4.11;64.86;94636.44;4963545;28;20227;-66
2022/04/20 06:14:33;;;;;;;15.50;13.90;;;;;;;4.05;64.92;94623.94;4989183;28;20224;-66
2022/04/20 06:16:58;;;;;;;15.23;13.73;;;;;;;4.02;64.88;94626.78;4965957;28;20307;-68
2022/04/20 06:19:24;;;;;;;16.17;14.43;;;;;;;4.11;64.99;94621.66;4956279;28;20248;-67
2022/04/20 06:21:49;;;;;;;15.20;13.80;;;;;;;4.04;65.07;94619.69;4939315;28;20287;-68
2022/04/20 06:24:15;;;;;;;15.37;13.80;;;;;;;4.02;66.16;94621.56;4941983;28;20205;-69
2022/04/20 06:26:40;;;;;;;16.77;13.90;;;;;;;4.15;65.66;94617.03;4947997;28;20193;-70
2022/04/20 06:29:06;;;;;;;15.93;14.33;;;;;;;4.14;65.74;94610.16;4941618;28;20247;-68
2022/04/20 06:31:31;;;;;;;15.07;13.53;;;;;;;4.13;67.23;94608.53;4957035;28;20233;-69
2022/04/20 06:33:58;;;;;;;15.07;13.67;;;;;;;4.22;66.93;94612.97;4941245;28;20226;-67
2022/04/20 06:36:25;;;;;;;15.70;14.20;;;;;;;4.14;66.97;94618.81;4951220;28;20194;-69
2022/04/20 06:38:50;;;;;;;15.80;14.27;;;;;;;4.08;67.27;94610.66;4951403;28;20202;-69
2022/04/20 06:41:16;;;;;;;16.53;14.93;;;;;;;4.12;67.34;94606.88;4940640;28;20211;-68
2022/04/20 06:43:42;;;;;;;17.80;16.00;;;;;;;4.21;67.89;94608.75;4937737;28;20243;-69
2022/04/20 06:46:07;;;;;;;19.17;17.30;;;;;;;4.16;68.40;94609.09;4950651;28;20248;-70
2022/04/20 06:48:33;;;;;;;18.50;16.70;;;;;;;4.12;68.44;94601.69;4954738;28;20224;-68
2022/04/20 06:51:01;;;;;;;17.33;15.63;;;;;;;4.17;68.04;94607.31;4939702;28;20294;-66
2022/04/20 06:58:55;;;;;;;17.60;16.00;;;;;;;4.09;68.81;94601.91;4936047;28;20283;-66
2022/04/20 07:01:20;;;;;;;19.07;17.27;;;;;;;4.09;69.50;94601.91;4936417;28;20224;-68
2022/04/20 07:03:46;;;;;;;17.60;15.90;;;;;;;4.19;69.29;94597.63;4939548;28;20213;-64
2022/04/20 07:06:11;;;;;;;20.13;17.83;;;;;;;4.25;69.63;94591.94;4948130;28;20212;-66
2022/04/20 07:08:37;;;;;;;20.40;18.27;;;;;;;4.28;69.47;94585.66;4962815;28;20257;-66
2022/04/20 07:11:04;;;;;;;19.23;17.37;;;;;;;4.13;69.07;94585.94;4946920;28;20228;-65
2022/04/20 07:13:29;;;;;;;19.37;17.43;;;;;;;4.23;69.11;94593.84;4944650;28;20307;-68
2022/04/20 07:15:55;;;;;;;19.87;17.87;;;;;;;4.25;69.27;94604.97;4948660;28;20325;-67
2022/04/20 07:18:20;;;;;;;21.03;18.93;;;;;;;4.22;69.52;94609.56;4944932;28;20217;-69
2022/04/20 07:20:46;;;;;;;22.20;19.80;;;;;;;4.37;69.89;94616.97;4955843;28;20212;-72
2022/04/20 07:23:12;;;;;;;21.17;19.17;;;;;;;4.33;69.31;94612.13;4959364;28;20307;-67
2022/04/20 07:25:38;;;;;;;21.27;19.00;;;;;;;4.39;69.23;94616.84;4960900;28;20241;-67
2022/04/20 07:28:05;;;;;;;21.03;18.77;;;;;;;4.41;69.96;94614.94;4941100;28;20248;-66
2022/04/20 07:30:31;;;;;;;22.00;19.93;;;;;;;4.38;70.56;94616.03;4961264;28;20205;-65
2022/04/20 07:32:56;;;;;;;21.23;19.23;;;;;;;4.41;70.39;94607.13;4949828;28;20227;-68
2022/04/20 07:35:22;;;;;;;19.93;17.67;;;;;;;4.38;69.88;94612.56;4946886;28;20299;-65
2022/04/20 07:37:48;;;;;;;20.20;18.23;;;;;;;4.40;70.51;94621.91;4944985;28;20232;-63
2022/04/20 07:40:14;;;;;;;20.37;18.37;;;;;;;4.41;70.37;94609.72;4944258;28;20235;-67
2022/04/20 07:42:40;;;;;;;20.70;18.67;;;;;;;4.46;70.76;94611.97;4947692;28;20220;-67
2022/04/20 07:45:06;;;;;;;22.07;19.87;;;;;;;4.52;70.01;94601.06;4973016;28;20200;-65
2022/04/20 07:47:32;;;;;;;21.80;19.70;;;;;;;4.17;70.79;94604.72;4939453;28;20237;-67
2022/04/20 07:52:43;;;;;;;22.87;20.63;;;;;;;4.13;72.17;94604.16;4953953;28;20243;-68
2022/04/20 07:55:30;;;;;;;22.70;20.40;;;;;;;4.32;72.22;94608.69;4962449;28;20310;-68
2022/04/20 07:57:58;;;;;;;22.53;20.47;;;;;;;4.39;72.97;94609.03;4959754;28;20232;-66
2022/04/20 08:00:24;;;;;;;19.43;17.33;;;;;;;4.47;71.92;94608.44;4940980;28;20208;-66
2022/04/20 08:02:50;;;;;;;21.17;19.10;;;;;;;4.44;70.99;94609.50;4963470;28;20201;-68
2022/04/20 08:05:19;;;;;;;19.87;17.97;;;;;;;4.49;71.45;94596.94;4941887;28;20245;-68
2022/04/20 08:07:45;;;;;;;21.33;19.33;;;;;;;4.45;71.52;94602.50;4953662;28;20279;-65
2022/04/20 08:10:12;;;;;;;21.53;19.30;;;;;;;4.51;71.86;94591.59;4949221;28;20238;-67
2022/04/20 08:12:41;;;;;;;22.47;20.13;;;;;;;4.67;71.61;94591.16;4949503;28;20247;-70
2022/04/20 08:15:09;;;;;;;21.37;19.40;;;;;;;4.77;71.52;94587.66;4967753;28;20213;-68
2022/04/20 08:17:35;;;;;;;22.43;20.17;;;;;;;5.05;70.59;94593.16;4938954;29;20236;-67
2022/04/20 08:20:05;;;;;;;21.43;19.43;;;;;;;5.14;70.57;94586.38;4965575;28;20244;-66
2022/04/20 08:22:31;;;;;;;20.73;18.57;;;;;;;5.42;69.84;94582.25;4935258;28;20256;-70
2022/04/20 08:24:56;;;;;;;20.57;18.57;;;;;;;5.38;69.03;94583.47;4948753;28;20300;-71
2022/04/20 08:27:22;;;;;;;20.90;19.00;;;;;;;5.42;68.67;94575.25;4945345;28;20242;-69
2022/04/20 08:29:49;;;;;;;21.07;19.03;;;;;;;5.21;68.75;94569.25;4945860;28;20209;-69
2022/04/20 08:32:18;;;;;;;22.90;20.77;;;;;;;5.39;69.71;94562.47;4944057;28;20225;-69
2022/04/20 08:34:44;;;;;;;23.07;20.80;;;;;;;5.56;69.34;94571.47;4958245;28;20221;-66
2022/04/20 08:37:10;;;;;;;23.83;21.63;;;;;;;5.43;70.02;94573.50;4962188;28;20221;-72
2022/04/20 08:39:35;;;;;;;26.03;23.60;;;;;;;5.49;70.29;94568.56;4942081;28;20228;-68
2022/04/20 08:42:04;;;;;;;26.37;23.57;;;;;;;5.54;70.50;94560.34;4945160;28;20264;-67
2022/04/20 08:44:33;;;;;;;24.77;21.77;;;;;;;5.41;69.72;94560.56;4955029;28;20213;-67
2022/04/20 08:47:01;;;;;;;23.80;21.47;;;;;;;5.48;70.50;94553.03;4938539;28;20220;-69
2022/04/20 08:49:26;;;;;;;24.03;21.63;;;;;;;5.60;69.98;94549.38;4949347;28;20234;-68
2022/04/20 08:54:37;;;;;;;24.30;21.97;;;;;;;5.59;69.62;94544.31;4947298;28;20279;-68
2022/04/20 08:57:15;;;;;;;24.63;22.43;;;;;;;5.56;70.48;94531.50;4948437;28;20252;-69
2022/04/20 08:59:43;;;;;;;23.27;21.07;;;;;;;5.54;69.78;94536.88;4948620;28;20240;-70
2022/04/20 09:02:13;;;;;;;23.67;21.57;;;;;;;5.52;70.53;94538.78;4961112;28;20311;-67
2022/04/20 09:04:39;;;;;;;24.13;21.73;;;;;;;5.51;71.56;94542.34;4964101;28;20231;-67
2022/04/20 09:07:09;;;;;;;24.63;22.13;;;;;;;5.47;71.27;94540.97;4942430;28;20225;-67
2022/04/20 09:09:36;;;;;;;23.10;20.97;;;;;;;5.43;71.28;94536.97;4961052;28;20236;-66
2022/04/20 09:12:06;;;;;;;24.17;20.20;;;;;;;5.52;70.78;94529.16;4963473;28;20291;-66
2022/04/20 09:14:32;;;;;;;21.03;19.13;;;;;;;5.55;70.28;94520.25;4946421;28;20229;-68
2022/04/20 09:17:01;;;;;;;21.03;18.93;;;;;;;5.67;69.99;94521.81;4947280;28;20236;-68
2022/04/20 09:19:28;;;;;;;20.97;19.03;;;;;;;5.83;70.14;94504.81;4942172;28;20371;-64
2022/04/20 09:21:55;;;;;;;20.63;18.63;;;;;;;6.14;69.10;94490.69;4942307;28;20268;-65
2022/04/20 09:24:21;;;;;;;21.07;19.17;;;;;;;6.10;69.31;94494.56;4954795;28;20209;-67
2022/04/20 09:26:55;;;;;;;22.30;18.83;;;;;;;6.13;69.45;94499.50;4943700;28;21286;-68
2022/04/20 09:29:21;;;;;;;21.63;19.50;;;;;;;6.14;69.26;94480.25;4959732;28;20244;-68
2022/04/20 09:31:52;;;;;;;20.53;18.57;;;;;;;6.19;69.09;94498.13;4945522;28;20316;-67
2022/04/20 09:34:53;;;;;;;20.10;18.27;;;;;;;6.10;69.50;94494.56;4942230;28;20233;-69
2022/04/20 09:37:20;;;;;;;19.13;17.43;;;;;;;6.14;68.62;94495.09;4953905;28;20237;-69
2022/04/20 09:39:46;;;;;;;19.30;17.43;;;;;;;6.21;68.78;94505.81;4966523;28;20226;-69
2022/04/20 09:42:12;;;;;;;19.67;17.77;;;;;;;6.27;68.73;94487.81;4958196;28;20208;-70
2022/04/20 09:44:41;;;;;;;19.30;17.43;;;;;;;6.22;67.96;94481.34;4968300;28;20256;-68
2022/04/20 09:49:58;;;;;;;20.30;18.30;;;;;;;6.18;68.87;94460.75;4943210;28;20243;-69
2022/04/20 09:52:47;;;;;;;19.67;17.77;;;;;;;6.22;69.02;94476.13;4956625;28;20282;-67
2022/04/20 09:55:15;;;;;;;19.37;17.57;;;;;;;6.06;70.26;94464.47;4961911;28;20228;-69
2022/04/20 09:57:41;;;;;;;20.47;18.57;;;;;;;6.10;70.73;94468.44;4963088;28;20249;-67
2022/04/20 10:00:12;;;;;;;21.50;19.33;;;;;;;6.01;69.72;94458.81;4954807;28;20204;-67
2022/04/20 10:02:48;;;;;;;19.97;17.97;;;;;;;5.93;70.79;94462.16;4960164;28;20237;-68
2022/04/20 10:05:15;;;;;;;20.70;18.67;;;;;;;6.22;70.48;94463.91;4960334;28;20288;-66
2022/04/20 10:07:40;;;;;;;19.80;17.90;;;;;;;6.39;69.04;94468.44;4956375;28;20225;-67
2022/04/20 10:10:07;;;;;;;19.47;17.77;;;;;;;6.49;68.39;94460.56;4960197;28;20236;-67
2022/04/20 10:12:35;;;;;;;18.80;17.17;;;;;;;6.50;68.89;94446.56;4946164;28;20212;-69
2022/04/20 10:17:53;;;;;;;19.20;17.50;;;;;;;6.22;71.44;94450.84;4976238;28;20227;-67
2022/04/20 10:20:20;;;;;;;15.80;14.30;;;;;;;6.11;70.16;94458.84;4972894;28;20307;-67
2022/04/20 10:22:47;;;;;;;13.13;11.77;;;;;;;5.85;69.68;94458.53;4971417;28;20220;-67
2022/04/20 10:25:13;;;;;;;14.47;13.10;;;;;;;5.99;70.24;94442.50;4964893;28;21325;-67
2022/04/20 10:27:48;;;;;;;13.40;12.20;;;;;;;6.21;71.11;94448.41;4961112;28;20236;-66
2022/04/20 10:30:24;;;;;;;11.90;10.93;;;;;;;6.13;71.70;94436.84;4962663;28;20265;-67
2022/04/20 10:32:59;;;;;;;12.70;11.60;;;;;;;6.26;71.25;94430.53;4965645;28;20244;-68
2022/04/20 10:35:25;;;;;;;10.53;9.73;;;;;;;6.41;71.27;94418.66;4959461;28;20252;-66
2022/04/20 10:38:11;;;;;;;11.17;10.13;;;;;;;6.49;71.25;94426.59;4953419;28;20248;-66
2022/04/20 10:41:06;;;;;;;11.77;10.80;;;;;;;6.65;71.36;94431.25;4964753;28;20262;-65
2022/04/20 10:43:34;;;;;;;15.27;13.77;;;;;;;6.63;71.17;94425.34;4965796;28;20232;-65
2022/04/20 10:46:14;;;;;;;11.33;10.37;;;;;;;6.88;71.11;94413.44;4968523;28;20235;-66
2022/04/20 10:48:44;;;;;;;10.33;9.53;;;;;;;6.83;70.78;94423.50;4980831;28;20232;-62
2022/04/20 10:51:35;;;;;;;10.93;9.97;;;;;;;6.83;70.49;94413.03;4978287;28;20212;-62
2022/04/20 10:54:27;;;;;;;10.87;9.93;;;;;;;6.88;70.60;94408.19;4981639;28;20240;-63
2022/04/20 10:57:02;;;;;;;9.40;8.60;;;;;;;6.94;70.22;94405.00;4979196;28;20231;-64
2022/04/20 10:59:30;;;;;;;8.80;8.10;;;;;;;6.85;70.15;94411.09;4981495;28;20231;-67
2022/04/20 11:01:59;;;;;;;9.97;8.97;;;;;;;6.85;70.78;94404.09;4972521;28;20227;-64
2022/04/20 11:04:50;;;;;;;9.23;8.53;;;;;;;6.90;70.53;94406.28;4972457;28;20308;-66
2022/04/20 11:07:23;;;;;;;9.53;8.73;;;;;;;6.67;70.94;94405.00;4975445;28;20227;-67
2022/04/20 11:10:07;;;;;;;9.53;8.73;;;;;;;6.73;70.24;94407.84;4984939;28;20231;-68
2022/04/20 11:21:03;;;;;;;10.23;9.43;;;;;;;6.61;72.27;94403.78;4968318;28;20214;-65
2022/04/20 11:23:54;;;;;;;9.60;8.70;;;;;;;6.55;71.75;94415.63;4962720;28;20255;-66
2022/04/20 11:26:25;;;;;;;9.37;8.50;;;;;;;6.54;72.11;94411.34;4958352;28;20303;-66
2022/04/20 11:28:55;;;;;;;9.93;9.03;;;;;;;6.55;71.96;94399.94;4963515;28;20302;-66
2022/04/20 11:31:21;;;;;;;9.47;8.67;;;;;;;6.67;70.92;94412.81;4983239;28;20232;-65
2022/04/20 11:33:47;;;;;;;11.10;10.10;;;;;;;6.59;71.19;94401.28;4966093;28;20231;-67
2022/04/20 11:36:14;;;;;;;13.63;12.47;;;;;;;6.59;71.15;94397.84;4960101;28;20279;-66
2022/04/20 11:38:42;;;;;;;17.83;16.23;;;;;;;6.50;70.78;94396.94;4963312;28;20240;-66
2022/04/20 11:41:09;;;;;;;19.03;17.27;;;;;;;6.38;70.76;94396.25;4961357;28;20311;-68
2022/04/20 11:43:36;;;;;;;18.03;16.33;;;;;;;6.28;71.76;94405.06;4969089;28;20224;-66
2022/04/20 11:46:03;;;;;;;18.87;17.27;;;;;;;6.29;72.76;94412.78;4974892;28;20224;-66
2022/04/20 11:48:28;;;;;;;17.67;15.90;;;;;;;6.33;72.67;94400.25;4972626;28;20302;-67
2022/04/20 11:51:01;;;;;;;19.03;16.77;;;;;;;6.36;72.23;94413.03;4963534;28;20376;-66
2022/04/20 11:53:38;;;;;;;17.40;15.80;;;;;;;6.22;72.48;94408.25;4957239;28;20232;-66
2022/04/20 11:56:07;;;;;;;19.17;17.37;;;;;;;6.06;72.69;94409.66;4952371;28;20232;-67
2022/04/20 11:58:33;;;;;;;19.73;18.00;;;;;;;6.01;73.64;94411.84;4959842;28;20228;-61
2022/04/20 12:01:00;;;;;;;18.60;16.90;;;;;;;6.06;73.63;94411.44;4957592;28;20241;-65
2022/04/20 12:03:30;;;;;;;18.53;16.93;;;;;;;6.01;73.27;94416.25;4951330;28;20307;-67
2022/04/20 12:06:00;;;;;;;17.77;16.00;;;;;;;6.01;73.71;94405.81;4962071;28;20219;-64